sensor_id;sensor_type;location;lat;lon;timestamp;P1;durP1;ratioP1;P2;durP2;ratioP2
84050;SDS011;74137;50.136;19.040;2024-03-29T00:00:06;6.40;;;3.10;;
84050;SDS011;74137;50.136;19.040;2024-03-29T00:03:00;7.80;;;3.30;;
84050;SDS011;74137;50.136;19.040;2024-03-29T00:05:28;8.10;;;2.90;;
84050;SDS011;74137;50.136;19.040;2024-03-29T00:07:56;5.80;;;3.00;;
84050;SDS011;74137;50.136;19.040;2024-03-29T00:10:24;6.80;;;2.00;;
84050;SDS011;74137;50.136;19.040;2024-03-29T00:12:53;4.50;;;1.90;;
84050;SDS011;74137;50.136;19.040;2024-03-29T00:15:21;3.90;;;1.60;;
84050;SDS011;74137;50.136;19.040;2024-03-29T00:17:49;3.50;;;1.60;;
84050;SDS011;74137;50.136;19.040;2024-03-29T00:20:19;5.40;;;1.90;;
84050;SDS011;74137;50.136;19.040;2024-03-29T00:22:48;5.50;;;2.40;;
84050;SDS011;74137;50.136;19.040;2024-03-29T00:25:17;4.90;;;1.90;;
84050;SDS011;74137;50.136;19.040;2024-03-29T00:27:47;5.10;;;2.10;;
84050;SDS011;74137;50.136;19.040;2024-03-29T00:30:18;5.60;;;2.10;;
84050;SDS011;74137;50.136;19.040;2024-03-29T00:32:46;5.90;;;2.40;;
84050;SDS011;74137;50.136;19.040;2024-03-29T00:35:17;5.20;;;2.60;;
84050;SDS011;74137;50.136;19.040;2024-03-29T00:37:45;6.80;;;3.30;;
84050;SDS011;74137;50.136;19.040;2024-03-29T00:40:13;7.10;;;3.60;;
84050;SDS011;74137;50.136;19.040;2024-03-29T00:42:44;8.40;;;4.10;;
84050;SDS011;74137;50.136;19.040;2024-03-29T00:45:12;7.30;;;4.10;;
84050;SDS011;74137;50.136;19.040;2024-03-29T00:47:59;9.30;;;4.20;;
84050;SDS011;74137;50.136;19.040;2024-03-29T00:50:27;11.40;;;5.30;;
84050;SDS011;74137;50.136;19.040;2024-03-29T00:52:56;9.80;;;4.60;;
84050;SDS011;74137;50.136;19.040;2024-03-29T00:55:24;6.70;;;3.50;;
84050;SDS011;74137;50.136;19.040;2024-03-29T00:57:53;6.30;;;3.60;;
84050;SDS011;74137;50.136;19.040;2024-03-29T01:00:23;6.80;;;3.10;;
84050;SDS011;74137;50.136;19.040;2024-03-29T01:02:52;5.10;;;2.70;;
84050;SDS011;74137;50.136;19.040;2024-03-29T01:05:20;5.70;;;2.70;;
84050;SDS011;74137;50.136;19.040;2024-03-29T01:07:50;5.50;;;2.50;;
84050;SDS011;74137;50.136;19.040;2024-03-29T01:10:18;4.50;;;2.20;;
84050;SDS011;74137;50.136;19.040;2024-03-29T01:12:47;8.00;;;2.70;;
84050;SDS011;74137;50.136;19.040;2024-03-29T01:15:15;6.70;;;3.00;;
84050;SDS011;74137;50.136;19.040;2024-03-29T01:17:43;6.80;;;2.30;;
84050;SDS011;74137;50.136;19.040;2024-03-29T01:20:11;7.60;;;2.70;;
84050;SDS011;74137;50.136;19.040;2024-03-29T01:22:40;5.60;;;2.70;;
84050;SDS011;74137;50.136;19.040;2024-03-29T01:25:08;5.40;;;2.90;;
84050;SDS011;74137;50.136;19.040;2024-03-29T01:27:41;6.60;;;2.90;;
84050;SDS011;74137;50.136;19.040;2024-03-29T01:30:10;7.50;;;3.20;;
84050;SDS011;74137;50.136;19.040;2024-03-29T01:32:39;6.50;;;3.20;;
84050;SDS011;74137;50.136;19.040;2024-03-29T01:35:11;5.50;;;3.20;;
84050;SDS011;74137;50.136;19.040;2024-03-29T01:37:39;6.10;;;3.10;;
84050;SDS011;74137;50.136;19.040;2024-03-29T01:40:07;7.00;;;3.60;;
84050;SDS011;74137;50.136;19.040;2024-03-29T01:45:41;6.10;;;3.20;;
84050;SDS011;74137;50.136;19.040;2024-03-29T01:48:10;5.50;;;2.90;;
84050;SDS011;74137;50.136;19.040;2024-03-29T01:50:39;6.80;;;2.90;;
84050;SDS011;74137;50.136;19.040;2024-03-29T01:53:07;4.70;;;2.80;;
84050;SDS011;74137;50.136;19.040;2024-03-29T01:55:36;5.50;;;2.70;;
84050;SDS011;74137;50.136;19.040;2024-03-29T01:58:04;4.00;;;2.00;;
84050;SDS011;74137;50.136;19.040;2024-03-29T02:00:32;4.40;;;2.50;;
84050;SDS011;74137;50.136;19.040;2024-03-29T02:03:01;4.90;;;2.10;;
84050;SDS011;74137;50.136;19.040;2024-03-29T02:05:31;4.70;;;2.20;;
84050;SDS011;74137;50.136;19.040;2024-03-29T02:08:00;6.40;;;3.10;;
84050;SDS011;74137;50.136;19.040;2024-03-29T02:10:28;5.30;;;2.30;;
84050;SDS011;74137;50.136;19.040;2024-03-29T02:12:57;6.40;;;2.80;;
84050;SDS011;74137;50.136;19.040;2024-03-29T02:15:27;4.40;;;2.20;;
84050;SDS011;74137;50.136;19.040;2024-03-29T02:17:56;4.70;;;2.70;;
84050;SDS011;74137;50.136;19.040;2024-03-29T02:20:25;4.90;;;2.90;;
84050;SDS011;74137;50.136;19.040;2024-03-29T02:23:07;4.90;;;2.70;;
84050;SDS011;74137;50.136;19.040;2024-03-29T02:25:39;5.50;;;3.30;;
84050;SDS011;74137;50.136;19.040;2024-03-29T02:28:07;7.40;;;4.00;;
84050;SDS011;74137;50.136;19.040;2024-03-29T02:30:35;6.80;;;4.30;;
84050;SDS011;74137;50.136;19.040;2024-03-29T02:33:06;6.50;;;4.40;;
84050;SDS011;74137;50.136;19.040;2024-03-29T02:35:35;7.60;;;5.40;;
84050;SDS011;74137;50.136;19.040;2024-03-29T02:38:03;6.70;;;5.10;;
84050;SDS011;74137;50.136;19.040;2024-03-29T02:40:32;8.10;;;5.40;;
84050;SDS011;74137;50.136;19.040;2024-03-29T02:43:00;8.40;;;4.50;;
84050;SDS011;74137;50.136;19.040;2024-03-29T02:45:28;6.70;;;4.20;;
84050;SDS011;74137;50.136;19.040;2024-03-29T02:47:58;6.90;;;5.00;;
84050;SDS011;74137;50.136;19.040;2024-03-29T02:50:29;6.30;;;4.10;;
84050;SDS011;74137;50.136;19.040;2024-03-29T02:53:00;7.60;;;4.10;;
84050;SDS011;74137;50.136;19.040;2024-03-29T02:55:28;6.80;;;3.40;;
84050;SDS011;74137;50.136;19.040;2024-03-29T02:58:14;5.80;;;3.30;;
84050;SDS011;74137;50.136;19.040;2024-03-29T03:00:43;7.80;;;4.30;;
84050;SDS011;74137;50.136;19.040;2024-03-29T03:03:13;6.70;;;3.70;;
84050;SDS011;74137;50.136;19.040;2024-03-29T03:05:43;5.00;;;2.90;;
84050;SDS011;74137;50.136;19.040;2024-03-29T03:08:12;4.90;;;2.70;;
84050;SDS011;74137;50.136;19.040;2024-03-29T03:11:18;5.00;;;2.80;;
84050;SDS011;74137;50.136;19.040;2024-03-29T03:13:46;5.20;;;2.70;;
84050;SDS011;74137;50.136;19.040;2024-03-29T03:16:15;6.50;;;3.30;;
84050;SDS011;74137;50.136;19.040;2024-03-29T03:19:01;4.90;;;2.90;;
84050;SDS011;74137;50.136;19.040;2024-03-29T03:21:50;5.60;;;3.10;;
84050;SDS011;74137;50.136;19.040;2024-03-29T03:24:18;6.70;;;4.00;;
84050;SDS011;74137;50.136;19.040;2024-03-29T03:26:49;6.20;;;3.70;;
84050;SDS011;74137;50.136;19.040;2024-03-29T03:29:17;10.00;;;4.30;;
84050;SDS011;74137;50.136;19.040;2024-03-29T03:31:46;7.70;;;4.50;;
84050;SDS011;74137;50.136;19.040;2024-03-29T03:34:15;6.30;;;3.10;;
84050;SDS011;74137;50.136;19.040;2024-03-29T03:36:43;7.70;;;3.40;;
84050;SDS011;74137;50.136;19.040;2024-03-29T03:39:11;7.40;;;3.70;;
84050;SDS011;74137;50.136;19.040;2024-03-29T03:41:58;6.80;;;3.20;;
84050;SDS011;74137;50.136;19.040;2024-03-29T03:44:26;8.10;;;3.70;;
84050;SDS011;74137;50.136;19.040;2024-03-29T03:46:56;5.90;;;2.80;;
84050;SDS011;74137;50.136;19.040;2024-03-29T03:49:24;6.40;;;2.80;;
84050;SDS011;74137;50.136;19.040;2024-03-29T03:51:52;7.80;;;3.10;;
84050;SDS011;74137;50.136;19.040;2024-03-29T03:54:20;5.50;;;2.50;;
84050;SDS011;74137;50.136;19.040;2024-03-29T03:56:51;4.80;;;2.30;;
84050;SDS011;74137;50.136;19.040;2024-03-29T03:59:19;4.30;;;2.60;;
84050;SDS011;74137;50.136;19.040;2024-03-29T04:01:47;5.40;;;2.50;;
84050;SDS011;74137;50.136;19.040;2024-03-29T04:04:18;5.70;;;2.40;;
84050;SDS011;74137;50.136;19.040;2024-03-29T04:06:51;5.40;;;2.20;;
84050;SDS011;74137;50.136;19.040;2024-03-29T04:09:19;5.60;;;2.00;;
84050;SDS011;74137;50.136;19.040;2024-03-29T04:11:47;4.00;;;1.80;;
84050;SDS011;74137;50.136;19.040;2024-03-29T04:14:18;5.30;;;1.90;;
84050;SDS011;74137;50.136;19.040;2024-03-29T04:17:04;4.10;;;2.00;;
84050;SDS011;74137;50.136;19.040;2024-03-29T04:19:37;4.00;;;1.90;;
84050;SDS011;74137;50.136;19.040;2024-03-29T04:22:05;5.40;;;2.10;;
84050;SDS011;74137;50.136;19.040;2024-03-29T04:24:53;4.30;;;1.80;;
84050;SDS011;74137;50.136;19.040;2024-03-29T04:27:22;5.30;;;2.40;;
84050;SDS011;74137;50.136;19.040;2024-03-29T04:29:53;4.70;;;2.10;;
84050;SDS011;74137;50.136;19.040;2024-03-29T04:32:24;5.90;;;2.50;;
84050;SDS011;74137;50.136;19.040;2024-03-29T04:34:53;4.20;;;2.10;;
84050;SDS011;74137;50.136;19.040;2024-03-29T04:37:21;3.90;;;2.30;;
84050;SDS011;74137;50.136;19.040;2024-03-29T04:39:49;5.00;;;2.00;;
84050;SDS011;74137;50.136;19.040;2024-03-29T04:42:20;4.60;;;2.30;;
84050;SDS011;74137;50.136;19.040;2024-03-29T04:44:49;3.40;;;1.80;;
84050;SDS011;74137;50.136;19.040;2024-03-29T04:47:18;5.00;;;2.00;;
84050;SDS011;74137;50.136;19.040;2024-03-29T04:49:46;4.30;;;2.60;;
84050;SDS011;74137;50.136;19.040;2024-03-29T04:52:17;5.00;;;2.30;;
84050;SDS011;74137;50.136;19.040;2024-03-29T04:54:45;4.30;;;2.30;;
84050;SDS011;74137;50.136;19.040;2024-03-29T04:57:32;4.30;;;2.50;;
84050;SDS011;74137;50.136;19.040;2024-03-29T05:00:00;4.20;;;2.00;;
84050;SDS011;74137;50.136;19.040;2024-03-29T05:02:28;9.30;;;6.70;;
84050;SDS011;74137;50.136;19.040;2024-03-29T05:04:56;6.30;;;3.00;;
84050;SDS011;74137;50.136;19.040;2024-03-29T05:09:55;6.80;;;3.80;;
84050;SDS011;74137;50.136;19.040;2024-03-29T05:12:24;7.10;;;4.00;;
84050;SDS011;74137;50.136;19.040;2024-03-29T05:14:52;7.10;;;4.10;;
84050;SDS011;74137;50.136;19.040;2024-03-29T05:17:22;7.90;;;5.00;;
84050;SDS011;74137;50.136;19.040;2024-03-29T05:19:54;8.20;;;4.60;;
84050;SDS011;74137;50.136;19.040;2024-03-29T05:22:22;7.90;;;3.80;;
84050;SDS011;74137;50.136;19.040;2024-03-29T05:24:54;6.30;;;3.60;;
84050;SDS011;74137;50.136;19.040;2024-03-29T05:27:23;5.70;;;2.70;;
84050;SDS011;74137;50.136;19.040;2024-03-29T05:30:11;5.10;;;2.30;;
84050;SDS011;74137;50.136;19.040;2024-03-29T05:35:26;5.00;;;1.70;;
84050;SDS011;74137;50.136;19.040;2024-03-29T05:37:54;3.30;;;1.70;;
84050;SDS011;74137;50.136;19.040;2024-03-29T05:43:10;5.30;;;1.60;;
84050;SDS011;74137;50.136;19.040;2024-03-29T05:45:38;2.90;;;1.40;;
84050;SDS011;74137;50.136;19.040;2024-03-29T05:48:07;2.80;;;1.30;;
84050;SDS011;74137;50.136;19.040;2024-03-29T05:50:36;3.10;;;1.70;;
84050;SDS011;74137;50.136;19.040;2024-03-29T05:53:04;3.20;;;1.20;;
84050;SDS011;74137;50.136;19.040;2024-03-29T05:55:35;3.20;;;1.50;;
84050;SDS011;74137;50.136;19.040;2024-03-29T05:58:21;3.40;;;1.70;;
84050;SDS011;74137;50.136;19.040;2024-03-29T06:00:50;6.50;;;2.00;;
84050;SDS011;74137;50.136;19.040;2024-03-29T06:03:18;5.00;;;2.10;;
84050;SDS011;74137;50.136;19.040;2024-03-29T06:05:47;4.40;;;1.80;;
84050;SDS011;74137;50.136;19.040;2024-03-29T06:11:03;3.10;;;1.50;;
84050;SDS011;74137;50.136;19.040;2024-03-29T06:13:50;4.30;;;1.50;;
84050;SDS011;74137;50.136;19.040;2024-03-29T06:16:57;4.90;;;1.60;;
84050;SDS011;74137;50.136;19.040;2024-03-29T06:19:44;5.50;;;1.90;;
84050;SDS011;74137;50.136;19.040;2024-03-29T06:22:13;5.50;;;1.70;;
84050;SDS011;74137;50.136;19.040;2024-03-29T06:24:41;3.50;;;1.20;;
84050;SDS011;74137;50.136;19.040;2024-03-29T06:27:11;3.70;;;1.70;;
84050;SDS011;74137;50.136;19.040;2024-03-29T06:32:09;4.60;;;1.60;;
84050;SDS011;74137;50.136;19.040;2024-03-29T06:34:37;3.80;;;1.40;;
84050;SDS011;74137;50.136;19.040;2024-03-29T06:37:05;3.50;;;1.60;;
84050;SDS011;74137;50.136;19.040;2024-03-29T06:39:35;2.90;;;1.40;;
84050;SDS011;74137;50.136;19.040;2024-03-29T06:42:03;4.70;;;1.40;;
84050;SDS011;74137;50.136;19.040;2024-03-29T06:44:35;3.00;;;1.50;;
84050;SDS011;74137;50.136;19.040;2024-03-29T06:47:07;3.00;;;1.40;;
84050;SDS011;74137;50.136;19.040;2024-03-29T06:49:36;4.90;;;2.00;;
84050;SDS011;74137;50.136;19.040;2024-03-29T06:52:07;4.70;;;1.60;;
84050;SDS011;74137;50.136;19.040;2024-03-29T06:54:36;2.90;;;1.30;;
84050;SDS011;74137;50.136;19.040;2024-03-29T06:57:04;3.30;;;1.40;;
84050;SDS011;74137;50.136;19.040;2024-03-29T06:59:33;4.20;;;1.30;;
84050;SDS011;74137;50.136;19.040;2024-03-29T07:02:01;4.60;;;1.40;;
84050;SDS011;74137;50.136;19.040;2024-03-29T07:06:59;3.30;;;1.30;;
84050;SDS011;74137;50.136;19.040;2024-03-29T07:09:27;2.20;;;1.10;;
84050;SDS011;74137;50.136;19.040;2024-03-29T07:11:55;3.40;;;1.30;;
84050;SDS011;74137;50.136;19.040;2024-03-29T07:14:24;2.50;;;1.10;;
84050;SDS011;74137;50.136;19.040;2024-03-29T07:16:54;2.40;;;0.90;;
84050;SDS011;74137;50.136;19.040;2024-03-29T07:19:25;2.10;;;1.10;;
84050;SDS011;74137;50.136;19.040;2024-03-29T07:21:53;3.50;;;1.30;;
84050;SDS011;74137;50.136;19.040;2024-03-29T07:24:24;4.20;;;1.10;;
84050;SDS011;74137;50.136;19.040;2024-03-29T07:26:55;4.50;;;1.60;;
84050;SDS011;74137;50.136;19.040;2024-03-29T07:29:24;3.10;;;1.20;;
84050;SDS011;74137;50.136;19.040;2024-03-29T07:31:53;2.20;;;1.00;;
84050;SDS011;74137;50.136;19.040;2024-03-29T07:34:21;2.30;;;0.80;;
84050;SDS011;74137;50.136;19.040;2024-03-29T07:37:07;2.10;;;0.90;;
84050;SDS011;74137;50.136;19.040;2024-03-29T07:39:43;2.50;;;1.30;;
84050;SDS011;74137;50.136;19.040;2024-03-29T07:42:12;3.80;;;1.00;;
84050;SDS011;74137;50.136;19.040;2024-03-29T07:44:42;2.00;;;0.90;;
84050;SDS011;74137;50.136;19.040;2024-03-29T07:47:11;2.20;;;0.70;;
84050;SDS011;74137;50.136;19.040;2024-03-29T07:49:42;1.50;;;0.60;;
84050;SDS011;74137;50.136;19.040;2024-03-29T07:52:34;1.00;;;0.70;;
84050;SDS011;74137;50.136;19.040;2024-03-29T07:55:03;3.30;;;0.90;;
84050;SDS011;74137;50.136;19.040;2024-03-29T07:57:31;2.10;;;0.80;;
84050;SDS011;74137;50.136;19.040;2024-03-29T08:00:00;3.60;;;1.30;;
84050;SDS011;74137;50.136;19.040;2024-03-29T08:02:32;2.40;;;0.90;;
84050;SDS011;74137;50.136;19.040;2024-03-29T08:05:01;3.80;;;1.60;;
84050;SDS011;74137;50.136;19.040;2024-03-29T08:07:31;2.20;;;0.90;;
84050;SDS011;74137;50.136;19.040;2024-03-29T08:10:00;2.60;;;1.00;;
84050;SDS011;74137;50.136;19.040;2024-03-29T08:12:29;3.40;;;1.00;;
84050;SDS011;74137;50.136;19.040;2024-03-29T08:15:01;2.10;;;0.80;;
84050;SDS011;74137;50.136;19.040;2024-03-29T08:20:16;1.40;;;0.60;;
84050;SDS011;74137;50.136;19.040;2024-03-29T08:22:45;3.40;;;0.70;;
84050;SDS011;74137;50.136;19.040;2024-03-29T08:25:14;2.90;;;0.70;;
84050;SDS011;74137;50.136;19.040;2024-03-29T08:27:44;1.50;;;0.60;;
84050;SDS011;74137;50.136;19.040;2024-03-29T08:30:13;1.50;;;0.60;;
84050;SDS011;74137;50.136;19.040;2024-03-29T08:32:42;1.80;;;0.90;;
84050;SDS011;74137;50.136;19.040;2024-03-29T08:35:10;1.70;;;0.50;;
84050;SDS011;74137;50.136;19.040;2024-03-29T08:37:39;3.30;;;0.70;;
84050;SDS011;74137;50.136;19.040;2024-03-29T08:40:09;2.80;;;0.80;;
84050;SDS011;74137;50.136;19.040;2024-03-29T08:45:52;1.50;;;0.60;;
84050;SDS011;74137;50.136;19.040;2024-03-29T08:48:21;2.60;;;0.90;;
84050;SDS011;74137;50.136;19.040;2024-03-29T08:50:51;3.60;;;0.70;;
84050;SDS011;74137;50.136;19.040;2024-03-29T08:53:22;3.40;;;1.30;;
84050;SDS011;74137;50.136;19.040;2024-03-29T08:56:03;2.50;;;1.00;;
84050;SDS011;74137;50.136;19.040;2024-03-29T09:01:42;4.60;;;1.00;;
84050;SDS011;74137;50.136;19.040;2024-03-29T09:04:37;2.00;;;0.60;;
84050;SDS011;74137;50.136;19.040;2024-03-29T09:07:05;1.40;;;0.70;;
84050;SDS011;74137;50.136;19.040;2024-03-29T09:09:34;4.00;;;0.90;;
84050;SDS011;74137;50.136;19.040;2024-03-29T09:12:02;2.50;;;0.80;;
84050;SDS011;74137;50.136;19.040;2024-03-29T09:14:30;3.90;;;0.90;;
84050;SDS011;74137;50.136;19.040;2024-03-29T09:16:58;1.80;;;0.60;;
84050;SDS011;74137;50.136;19.040;2024-03-29T09:19:27;3.20;;;0.70;;
84050;SDS011;74137;50.136;19.040;2024-03-29T09:21:55;1.40;;;0.60;;
84050;SDS011;74137;50.136;19.040;2024-03-29T09:24:23;1.90;;;0.60;;
84050;SDS011;74137;50.136;19.040;2024-03-29T09:26:53;2.20;;;0.60;;
84050;SDS011;74137;50.136;19.040;2024-03-29T09:29:21;2.30;;;0.60;;
84050;SDS011;74137;50.136;19.040;2024-03-29T09:31:50;1.70;;;0.70;;
84050;SDS011;74137;50.136;19.040;2024-03-29T11:25:57;2.50;;;0.50;;
84050;SDS011;74137;50.136;19.040;2024-03-29T11:28:34;1.50;;;0.50;;
84050;SDS011;74137;50.136;19.040;2024-03-29T11:31:04;0.50;;;0.40;;
84050;SDS011;74137;50.136;19.040;2024-03-29T11:36:13;1.50;;;0.60;;
84050;SDS011;74137;50.136;19.040;2024-03-29T11:38:47;1.40;;;0.40;;
84050;SDS011;74137;50.136;19.040;2024-03-29T11:41:17;1.20;;;0.40;;
84050;SDS011;74137;50.136;19.040;2024-03-29T11:43:48;0.50;;;0.20;;
84050;SDS011;74137;50.136;19.040;2024-03-29T11:46:16;1.00;;;0.60;;
84050;SDS011;74137;50.136;19.040;2024-03-29T11:48:48;1.70;;;0.40;;
84050;SDS011;74137;50.136;19.040;2024-03-29T11:51:22;1.40;;;0.40;;
84050;SDS011;74137;50.136;19.040;2024-03-29T11:53:56;2.20;;;0.60;;
84050;SDS011;74137;50.136;19.040;2024-03-29T11:56:26;1.50;;;0.40;;
84050;SDS011;74137;50.136;19.040;2024-03-29T11:58:59;1.10;;;0.50;;
84050;SDS011;74137;50.136;19.040;2024-03-29T12:01:45;2.60;;;0.50;;
84050;SDS011;74137;50.136;19.040;2024-03-29T12:04:22;2.10;;;0.60;;
84050;SDS011;74137;50.136;19.040;2024-03-29T12:06:51;2.70;;;0.40;;
84050;SDS011;74137;50.136;19.040;2024-03-29T12:09:19;0.70;;;0.40;;
84050;SDS011;74137;50.136;19.040;2024-03-29T12:11:47;0.70;;;0.30;;
84050;SDS011;74137;50.136;19.040;2024-03-29T12:14:17;1.70;;;0.60;;
84050;SDS011;74137;50.136;19.040;2024-03-29T12:16:45;1.30;;;0.50;;
84050;SDS011;74137;50.136;19.040;2024-03-29T12:19:23;0.90;;;0.30;;
84050;SDS011;74137;50.136;19.040;2024-03-29T12:21:53;1.10;;;0.60;;
84050;SDS011;74137;50.136;19.040;2024-03-29T12:24:23;2.10;;;0.40;;
84050;SDS011;74137;50.136;19.040;2024-03-29T12:26:53;1.10;;;0.40;;
84050;SDS011;74137;50.136;19.040;2024-03-29T12:29:22;1.30;;;0.50;;
84050;SDS011;74137;50.136;19.040;2024-03-29T12:32:01;1.10;;;0.40;;
84050;SDS011;74137;50.136;19.040;2024-03-29T12:34:29;1.50;;;0.50;;
84050;SDS011;74137;50.136;19.040;2024-03-29T12:37:03;3.50;;;0.50;;
84050;SDS011;74137;50.136;19.040;2024-03-29T12:39:32;1.30;;;0.60;;
84050;SDS011;74137;50.136;19.040;2024-03-29T12:42:20;1.90;;;0.60;;
84050;SDS011;74137;50.136;19.040;2024-03-29T12:44:48;2.40;;;0.50;;
84050;SDS011;74137;50.136;19.040;2024-03-29T12:47:17;3.20;;;0.60;;
84050;SDS011;74137;50.136;19.040;2024-03-29T12:49:47;1.50;;;0.60;;
84050;SDS011;74137;50.136;19.040;2024-03-29T12:52:20;2.10;;;0.60;;
84050;SDS011;74137;50.136;19.040;2024-03-29T12:54:50;2.40;;;0.80;;
84050;SDS011;74137;50.136;19.040;2024-03-29T12:57:18;2.20;;;0.40;;
84050;SDS011;74137;50.136;19.040;2024-03-29T12:59:47;2.10;;;0.40;;
84050;SDS011;74137;50.136;19.040;2024-03-29T13:02:15;1.50;;;0.50;;
84050;SDS011;74137;50.136;19.040;2024-03-29T13:04:43;3.10;;;0.70;;
84050;SDS011;74137;50.136;19.040;2024-03-29T13:07:13;2.10;;;0.60;;
84050;SDS011;74137;50.136;19.040;2024-03-29T13:09:45;3.40;;;0.70;;
84050;SDS011;74137;50.136;19.040;2024-03-29T13:12:13;2.30;;;0.60;;
84050;SDS011;74137;50.136;19.040;2024-03-29T13:14:41;2.00;;;0.60;;
84050;SDS011;74137;50.136;19.040;2024-03-29T13:17:09;1.40;;;0.70;;
84050;SDS011;74137;50.136;19.040;2024-03-29T13:19:56;3.30;;;0.70;;
84050;SDS011;74137;50.136;19.040;2024-03-29T13:22:24;1.80;;;0.60;;
84050;SDS011;74137;50.136;19.040;2024-03-29T13:24:52;10.30;;;2.10;;
84050;SDS011;74137;50.136;19.040;2024-03-29T13:27:20;4.00;;;0.90;;
84050;SDS011;74137;50.136;19.040;2024-03-29T13:29:48;33.30;;;4.50;;
84050;SDS011;74137;50.136;19.040;2024-03-29T13:32:16;2.50;;;0.60;;
84050;SDS011;74137;50.136;19.040;2024-03-29T13:34:47;38.70;;;5.90;;
84050;SDS011;74137;50.136;19.040;2024-03-29T13:37:15;3.10;;;0.80;;
84050;SDS011;74137;50.136;19.040;2024-03-29T13:39:43;3.40;;;0.70;;
84050;SDS011;74137;50.136;19.040;2024-03-29T13:42:10;2.50;;;0.70;;
84050;SDS011;74137;50.136;19.040;2024-03-29T13:44:38;2.70;;;0.70;;
84050;SDS011;74137;50.136;19.040;2024-03-29T13:47:06;2.80;;;0.70;;
84050;SDS011;74137;50.136;19.040;2024-03-29T13:49:37;1.90;;;0.60;;
84050;SDS011;74137;50.136;19.040;2024-03-29T13:52:08;2.70;;;0.50;;
84050;SDS011;74137;50.136;19.040;2024-03-29T13:54:36;4.30;;;1.10;;
84050;SDS011;74137;50.136;19.040;2024-03-29T13:57:16;3.20;;;0.80;;
84050;SDS011;74137;50.136;19.040;2024-03-29T13:59:47;2.70;;;0.70;;
84050;SDS011;74137;50.136;19.040;2024-03-29T14:02:16;6.60;;;0.90;;
84050;SDS011;74137;50.136;19.040;2024-03-29T14:04:48;3.20;;;1.30;;
84050;SDS011;74137;50.136;19.040;2024-03-29T14:07:19;2.50;;;0.50;;
84050;SDS011;74137;50.136;19.040;2024-03-29T14:10:06;2.60;;;0.70;;
84050;SDS011;74137;50.136;19.040;2024-03-29T14:12:37;5.00;;;0.70;;
84050;SDS011;74137;50.136;19.040;2024-03-29T14:15:08;3.30;;;1.00;;
84050;SDS011;74137;50.136;19.040;2024-03-29T14:17:40;3.30;;;0.70;;
84050;SDS011;74137;50.136;19.040;2024-03-29T14:20:10;2.90;;;0.80;;
84050;SDS011;74137;50.136;19.040;2024-03-29T14:22:42;3.80;;;0.90;;
84050;SDS011;74137;50.136;19.040;2024-03-29T14:25:13;2.90;;;0.70;;
84050;SDS011;74137;50.136;19.040;2024-03-29T14:27:41;2.70;;;0.80;;
84050;SDS011;74137;50.136;19.040;2024-03-29T14:30:27;3.30;;;0.70;;
84050;SDS011;74137;50.136;19.040;2024-03-29T14:33:00;3.30;;;0.80;;
84050;SDS011;74137;50.136;19.040;2024-03-29T14:35:34;4.60;;;0.80;;
84050;SDS011;74137;50.136;19.040;2024-03-29T14:38:09;3.90;;;0.80;;
84050;SDS011;74137;50.136;19.040;2024-03-29T14:40:37;2.40;;;0.70;;
84050;SDS011;74137;50.136;19.040;2024-03-29T14:43:09;3.90;;;0.90;;
84050;SDS011;74137;50.136;19.040;2024-03-29T14:45:37;5.20;;;1.10;;
84050;SDS011;74137;50.136;19.040;2024-03-29T14:48:06;5.10;;;0.70;;
84050;SDS011;74137;50.136;19.040;2024-03-29T14:50:34;3.20;;;0.70;;
84050;SDS011;74137;50.136;19.040;2024-03-29T14:53:03;4.10;;;0.70;;
84050;SDS011;74137;50.136;19.040;2024-03-29T14:55:38;2.60;;;0.70;;
84050;SDS011;74137;50.136;19.040;2024-03-29T14:58:40;2.10;;;0.60;;
84050;SDS011;74137;50.136;19.040;2024-03-29T15:01:09;6.70;;;1.50;;
84050;SDS011;74137;50.136;19.040;2024-03-29T15:03:38;4.50;;;1.00;;
84050;SDS011;74137;50.136;19.040;2024-03-29T15:06:09;5.30;;;1.30;;
84050;SDS011;74137;50.136;19.040;2024-03-29T15:08:37;6.30;;;1.20;;
84050;SDS011;74137;50.136;19.040;2024-03-29T15:11:08;3.50;;;1.20;;
84050;SDS011;74137;50.136;19.040;2024-03-29T15:13:37;4.00;;;1.10;;
84050;SDS011;74137;50.136;19.040;2024-03-29T15:16:07;4.10;;;1.10;;
84050;SDS011;74137;50.136;19.040;2024-03-29T15:18:35;5.00;;;0.90;;
84050;SDS011;74137;50.136;19.040;2024-03-29T15:21:03;4.30;;;1.20;;
84050;SDS011;74137;50.136;19.040;2024-03-29T15:23:32;4.40;;;1.70;;
84050;SDS011;74137;50.136;19.040;2024-03-29T15:26:01;4.30;;;1.50;;
84050;SDS011;74137;50.136;19.040;2024-03-29T15:28:31;4.70;;;1.40;;
84050;SDS011;74137;50.136;19.040;2024-03-29T15:31:19;4.50;;;1.60;;
84050;SDS011;74137;50.136;19.040;2024-03-29T15:33:49;4.80;;;1.30;;
84050;SDS011;74137;50.136;19.040;2024-03-29T15:36:18;5.70;;;1.60;;
84050;SDS011;74137;50.136;19.040;2024-03-29T15:38:49;3.90;;;1.30;;
84050;SDS011;74137;50.136;19.040;2024-03-29T15:41:32;6.20;;;1.40;;
84050;SDS011;74137;50.136;19.040;2024-03-29T15:44:02;5.30;;;1.10;;
84050;SDS011;74137;50.136;19.040;2024-03-29T15:46:31;3.40;;;1.00;;
84050;SDS011;74137;50.136;19.040;2024-03-29T15:49:01;4.20;;;1.00;;
84050;SDS011;74137;50.136;19.040;2024-03-29T15:51:29;2.80;;;1.20;;
84050;SDS011;74137;50.136;19.040;2024-03-29T15:53:57;5.30;;;1.50;;
84050;SDS011;74137;50.136;19.040;2024-03-29T15:56:28;4.40;;;1.10;;
84050;SDS011;74137;50.136;19.040;2024-03-29T15:58:58;5.70;;;1.50;;
84050;SDS011;74137;50.136;19.040;2024-03-29T16:01:26;4.80;;;1.30;;
84050;SDS011;74137;50.136;19.040;2024-03-29T16:03:58;3.60;;;1.10;;
84050;SDS011;74137;50.136;19.040;2024-03-29T16:06:27;7.00;;;1.00;;
84050;SDS011;74137;50.136;19.040;2024-03-29T16:08:56;3.00;;;1.10;;
84050;SDS011;74137;50.136;19.040;2024-03-29T16:11:24;5.40;;;1.70;;
84050;SDS011;74137;50.136;19.040;2024-03-29T16:14:04;3.40;;;1.10;;
84050;SDS011;74137;50.136;19.040;2024-03-29T16:16:51;6.60;;;1.90;;
84050;SDS011;74137;50.136;19.040;2024-03-29T16:19:19;4.40;;;1.40;;
84050;SDS011;74137;50.136;19.040;2024-03-29T16:21:47;4.00;;;1.30;;
84050;SDS011;74137;50.136;19.040;2024-03-29T16:24:16;4.30;;;1.10;;
84050;SDS011;74137;50.136;19.040;2024-03-29T16:26:44;7.40;;;1.50;;
84050;SDS011;74137;50.136;19.040;2024-03-29T16:29:12;5.00;;;1.70;;
84050;SDS011;74137;50.136;19.040;2024-03-29T16:34:10;5.20;;;1.40;;
84050;SDS011;74137;50.136;19.040;2024-03-29T16:36:38;4.50;;;1.40;;
84050;SDS011;74137;50.136;19.040;2024-03-29T16:39:06;9.80;;;1.80;;
84050;SDS011;74137;50.136;19.040;2024-03-29T16:41:34;5.50;;;1.70;;
84050;SDS011;74137;50.136;19.040;2024-03-29T16:44:02;5.00;;;1.30;;
84050;SDS011;74137;50.136;19.040;2024-03-29T16:46:31;7.50;;;1.90;;
84050;SDS011;74137;50.136;19.040;2024-03-29T16:48:59;6.00;;;1.60;;
84050;SDS011;74137;50.136;19.040;2024-03-29T16:51:29;7.80;;;2.00;;
84050;SDS011;74137;50.136;19.040;2024-03-29T16:53:57;7.80;;;2.10;;
84050;SDS011;74137;50.136;19.040;2024-03-29T16:56:25;6.00;;;2.10;;
84050;SDS011;74137;50.136;19.040;2024-03-29T16:58:53;5.60;;;1.80;;
84050;SDS011;74137;50.136;19.040;2024-03-29T17:01:21;6.60;;;2.10;;
84050;SDS011;74137;50.136;19.040;2024-03-29T17:03:50;7.80;;;1.80;;
84050;SDS011;74137;50.136;19.040;2024-03-29T17:06:18;8.40;;;2.60;;
84050;SDS011;74137;50.136;19.040;2024-03-29T17:08:46;6.80;;;2.30;;
84050;SDS011;74137;50.136;19.040;2024-03-29T17:11:14;8.20;;;2.70;;
84050;SDS011;74137;50.136;19.040;2024-03-29T17:13:42;7.90;;;2.80;;
84050;SDS011;74137;50.136;19.040;2024-03-29T17:16:10;9.70;;;2.60;;
84050;SDS011;74137;50.136;19.040;2024-03-29T17:18:38;8.90;;;3.80;;